Time;durP1;ratioP1;P1;durP2;ratioP2;P2;SDS_P1;SDS_P2;PMS_P1;PMS_P2;Temp;Humidity;BMP_temperature;BMP_pressure;BME280_temperature;BME280_humidity;BME280_pressure;Samples;Min_cycle;Max_cycle;Signal;HPM_P1;HPM_P2
2023/06/28 00:02:17;;;;;;;1.50;1.40;;;;;;;;;;5079554;28;20594;-60
2023/06/28 00:04:45;;;;;;;1.67;1.30;;;;;;;;;;5078911;28;20244;-59
2023/06/28 00:07:12;;;;;;;1.30;1.20;;;;;;;;;;5079317;28;20304;-59
2023/06/28 00:09:41;;;;;;;1.80;1.42;;;;;;;;;;5079248;28;20219;-59
2023/06/28 00:12:09;;;;;;;1.50;1.40;;;;;;;;;;5079004;28;20236;-59
2023/06/28 00:14:37;;;;;;;1.33;1.25;;;;;;;;;;5078882;28;20215;-59
2023/06/28 00:17:05;;;;;;;1.40;1.30;;;;;;;;;;5078964;28;20295;-59
2023/06/28 00:19:32;;;;;;;2.60;1.35;;;;;;;;;;5079256;28;20267;-59
2023/06/28 00:22:03;;;;;;;3.47;1.50;;;;;;;;;;5079055;28;20215;-59
2023/06/28 00:24:30;;;;;;;1.58;1.27;;;;;;;;;;5079084;28;20204;-59
2023/06/28 00:26:59;;;;;;;1.95;1.20;;;;;;;;;;5079008;28;20212;-59
2023/06/28 00:29:27;;;;;;;1.73;1.20;;;;;;;;;;5079256;28;20573;-59
2023/06/28 00:31:54;;;;;;;2.15;1.27;;;;;;;;;;5079017;28;20493;-60
2023/06/28 00:34:22;;;;;;;1.50;1.40;;;;;;;;;;5078822;28;20212;-59
2023/06/28 00:36:50;;;;;;;1.25;1.15;;;;;;;;;;5078962;28;20234;-59
2023/06/28 00:39:18;;;;;;;1.67;1.27;;;;;;;;;;5098324;28;20512;-60
2023/06/28 00:41:45;;;;;;;1.75;1.17;;;;;;;;;;5099513;28;20258;-60
2023/06/28 00:44:14;;;;;;;1.38;1.25;;;;;;;;;;5098849;28;20570;-60
2023/06/28 00:46:42;;;;;;;1.45;1.15;;;;;;;;;;5099008;28;20239;-60
2023/06/28 00:49:10;;;;;;;1.40;1.10;;;;;;;;;;5099083;28;20230;-60
2023/06/28 00:51:38;;;;;;;1.20;1.10;;;;;;;;;;5098831;28;20211;-60
2023/06/28 00:54:05;;;;;;;1.95;1.30;;;;;;;;;;5098843;28;20566;-60
2023/06/28 00:56:33;;;;;;;3.67;1.23;;;;;;;;;;5098684;28;20231;-60
2023/06/28 00:59:01;;;;;;;1.30;1.17;;;;;;;;;;5098662;28;20298;-60
2023/06/28 01:01:30;;;;;;;2.10;1.58;;;;;;;;;;5098940;28;20204;-60
2023/06/28 01:04:00;;;;;;;1.50;1.40;;;;;;;;;;5098547;28;20215;-60
2023/06/28 01:06:35;;;;;;;1.95;1.30;;;;;;;;;;5098381;28;20207;-60
2023/06/28 01:09:04;;;;;;;1.90;1.42;;;;;;;;;;5098427;28;20204;-60
2023/06/28 01:11:31;;;;;;;3.72;1.38;;;;;;;;;;5097860;28;20203;-59
2023/06/28 01:13:59;;;;;;;1.52;1.20;;;;;;;;;;5098423;28;20203;-59
2023/06/28 01:16:28;;;;;;;1.10;1.00;;;;;;;;;;5097870;28;20227;-59
2023/06/28 01:18:57;;;;;;;1.10;1.10;;;;;;;;;;5098114;28;20290;-68
2023/06/28 01:21:27;;;;;;;1.73;1.40;;;;;;;;;;5098232;28;20203;-60
2023/06/28 01:23:56;;;;;;;1.20;1.10;;;;;;;;;;5098489;28;20238;-60
2023/06/28 01:26:24;;;;;;;2.60;1.20;;;;;;;;;;5098398;28;20226;-60
2023/06/28 01:28:52;;;;;;;1.10;1.00;;;;;;;;;;5097935;28;20215;-59
2023/06/28 01:31:20;;;;;;;1.35;1.10;;;;;;;;;;5098037;28;20274;-59
2023/06/28 01:33:48;;;;;;;1.30;1.20;;;;;;;;;;5098263;28;20203;-60
2023/06/28 01:36:15;;;;;;;1.65;1.10;;;;;;;;;;5101130;28;20226;-59
2023/06/28 01:38:43;;;;;;;1.60;1.10;;;;;;;;;;5118201;28;20239;-60
2023/06/28 01:41:12;;;;;;;1.40;1.30;;;;;;;;;;5118617;28;20213;-60
2023/06/28 01:43:41;;;;;;;2.75;1.20;;;;;;;;;;5118706;28;20491;-60
2023/06/28 01:46:09;;;;;;;1.30;1.20;;;;;;;;;;5118079;28;20195;-60
2023/06/28 01:48:37;;;;;;;1.55;1.00;;;;;;;;;;5118183;28;20203;-60
2023/06/28 01:51:05;;;;;;;1.17;1.02;;;;;;;;;;5118038;28;20293;-60
2023/06/28 01:53:32;;;;;;;1.77;1.00;;;;;;;;;;5118047;28;20652;-60
2023/06/28 01:56:00;;;;;;;1.00;1.00;;;;;;;;;;5117950;28;20234;-60
2023/06/28 01:58:29;;;;;;;1.33;1.02;;;;;;;;;;5117932;28;20260;-59
2023/06/28 02:00:57;;;;;;;0.93;0.93;;;;;;;;;;5117084;28;20199;-59
2023/06/28 02:03:24;;;;;;;1.38;1.10;;;;;;;;;;5118221;28;20203;-60
2023/06/28 02:05:52;;;;;;;1.52;1.10;;;;;;;;;;5117704;28;20199;-60
2023/06/28 02:08:21;;;;;;;1.55;1.00;;;;;;;;;;5117842;28;20203;-60
2023/06/28 02:10:48;;;;;;;2.08;1.20;;;;;;;;;;5117839;28;20344;-60
2023/06/28 02:13:16;;;;;;;1.25;1.00;;;;;;;;;;5117497;28;20203;-60
2023/06/28 02:15:45;;;;;;;1.45;1.30;;;;;;;;;;5117773;28;20226;-60
2023/06/28 02:18:16;;;;;;;1.45;1.20;;;;;;;;;;5117834;28;20242;-59
2023/06/28 02:20:44;;;;;;;1.00;1.00;;;;;;;;;;5117987;28;20206;-59
2023/06/28 02:23:11;;;;;;;1.30;1.20;;;;;;;;;;5117696;28;20277;-59
2023/06/28 02:25:38;;;;;;;1.15;1.05;;;;;;;;;;5117751;28;20210;-59
2023/06/28 02:28:07;;;;;;;3.70;1.30;;;;;;;;;;5117335;28;20203;-59
2023/06/28 02:30:34;;;;;;;1.80;0.80;;;;;;;;;;5117511;28;20700;-59
2023/06/28 02:33:04;;;;;;;0.93;0.90;;;;;;;;;;5117817;28;20207;-59
2023/06/28 02:35:32;;;;;;;1.13;0.98;;;;;;;;;;5117395;28;20235;-59
2023/06/28 02:37:59;;;;;;;1.48;1.00;;;;;;;;;;5081590;28;20315;-59
2023/06/28 02:40:27;;;;;;;3.30;1.20;;;;;;;;;;5076892;28;20497;-59
2023/06/28 02:42:54;;;;;;;1.60;1.30;;;;;;;;;;5077139;28;20239;-59
2023/06/28 02:45:21;;;;;;;3.40;1.20;;;;;;;;;;5077165;28;20239;-59
2023/06/28 02:47:49;;;;;;;2.13;1.10;;;;;;;;;;5077305;28;20215;-59
2023/06/28 02:50:17;;;;;;;1.42;0.93;;;;;;;;;;5076847;28;20204;-59
2023/06/28 02:52:45;;;;;;;1.65;1.10;;;;;;;;;;5077164;28;20644;-59
2023/06/28 02:55:13;;;;;;;1.83;1.13;;;;;;;;;;5076194;28;20216;-60
2023/06/28 02:57:40;;;;;;;2.28;1.00;;;;;;;;;;5076035;28;20238;-59
2023/06/28 03:00:08;;;;;;;2.17;1.10;;;;;;;;;;5077378;28;20552;-60
2023/06/28 03:02:37;;;;;;;1.25;1.10;;;;;;;;;;5076336;28;20215;-59
2023/06/28 03:05:05;;;;;;;2.13;1.42;;;;;;;;;;5076808;28;20287;-59
2023/06/28 03:07:34;;;;;;;2.17;1.20;;;;;;;;;;5076344;28;20200;-59
2023/06/28 03:10:01;;;;;;;1.15;1.10;;;;;;;;;;5076462;28;20307;-59
2023/06/28 03:12:29;;;;;;;1.50;1.17;;;;;;;;;;5077848;28;20227;-59
2023/06/28 03:14:57;;;;;;;1.52;1.40;;;;;;;;;;5080918;28;20286;-59
2023/06/28 03:17:24;;;;;;;1.30;1.20;;;;;;;;;;5080002;28;20232;-59
2023/06/28 03:19:52;;;;;;;1.30;1.20;;;;;;;;;;5080169;28;20215;-59
2023/06/28 03:22:20;;;;;;;1.80;1.30;;;;;;;;;;5080254;28;20240;-59
2023/06/28 03:24:48;;;;;;;1.83;1.38;;;;;;;;;;5080209;28;20247;-60
2023/06/28 03:27:16;;;;;;;1.65;1.27;;;;;;;;;;5080031;28;20294;-59
2023/06/28 03:29:43;;;;;;;2.10;1.63;;;;;;;;;;5079809;28;20204;-59
2023/06/28 03:32:10;;;;;;;1.88;1.40;;;;;;;;;;5079746;28;20210;-60
2023/06/28 03:34:38;;;;;;;1.95;1.40;;;;;;;;;;5080404;28;20601;-60
2023/06/28 03:37:07;;;;;;;1.80;1.30;;;;;;;;;;5099604;28;20301;-60
2023/06/28 03:39:35;;;;;;;1.58;1.38;;;;;;;;;;5120389;28;20602;-59
2023/06/28 03:42:04;;;;;;;1.45;1.35;;;;;;;;;;5120196;28;20297;-59
2023/06/28 03:44:32;;;;;;;1.73;1.63;;;;;;;;;;5120410;28;20210;-59
2023/06/28 03:46:59;;;;;;;1.50;1.40;;;;;;;;;;5120685;28;20210;-59
2023/06/28 03:49:26;;;;;;;1.60;1.50;;;;;;;;;;5120590;28;20213;-59
2023/06/28 03:51:54;;;;;;;1.48;1.38;;;;;;;;;;5120519;28;20294;-59
2023/06/28 03:54:21;;;;;;;2.42;1.50;;;;;;;;;;5108405;28;20556;-59
2023/06/28 03:56:49;;;;;;;1.73;1.40;;;;;;;;;;5100420;28;20228;-60
2023/06/28 03:59:18;;;;;;;1.63;1.33;;;;;;;;;;5100355;28;20195;-60
2023/06/28 04:01:45;;;;;;;2.40;1.70;;;;;;;;;;5100106;28;20221;-60
2023/06/28 04:04:13;;;;;;;2.03;1.40;;;;;;;;;;5095557;28;20247;-60
2023/06/28 04:06:40;;;;;;;1.65;1.50;;;;;;;;;;5078519;28;20201;-60
2023/06/28 04:09:08;;;;;;;1.67;1.58;;;;;;;;;;5078941;28;20204;-60
2023/06/28 04:11:36;;;;;;;2.13;1.40;;;;;;;;;;5078873;28;20204;-60
2023/06/28 04:14:03;;;;;;;1.60;1.40;;;;;;;;;;5078725;28;20208;-59
2023/06/28 04:16:32;;;;;;;1.80;1.40;;;;;;;;;;5078370;28;20224;-59
2023/06/28 04:19:00;;;;;;;1.65;1.55;;;;;;;;;;5078037;28;20318;-59
2023/06/28 04:21:27;;;;;;;3.35;1.55;;;;;;;;;;5078425;28;20212;-59
2023/06/28 04:23:55;;;;;;;1.75;1.30;;;;;;;;;;5077737;28;20303;-59
2023/06/28 04:26:22;;;;;;;1.58;1.30;;;;;;;;;;5078422;28;20303;-60
2023/06/28 04:28:50;;;;;;;2.97;1.40;;;;;;;;;;5078216;28;20269;-59
2023/06/28 04:31:17;;;;;;;1.77;1.38;;;;;;;;;;5078231;28;20212;-60
2023/06/28 04:33:47;;;;;;;2.10;1.30;;;;;;;;;;5078272;28;20548;-59
2023/06/28 04:36:14;;;;;;;2.47;1.40;;;;;;;;;;5077467;28;20277;-59
2023/06/28 04:38:41;;;;;;;1.60;1.50;;;;;;;;;;5063245;28;20336;-60
2023/06/28 04:41:09;;;;;;;2.15;1.50;;;;;;;;;;5057893;28;20255;-59
2023/06/28 04:43:40;;;;;;;2.70;1.73;;;;;;;;;;5057161;28;20302;-59
2023/06/28 04:46:08;;;;;;;2.42;1.70;;;;;;;;;;5057220;28;20231;-59
2023/06/28 04:48:36;;;;;;;1.65;1.50;;;;;;;;;;5056928;28;20214;-59
2023/06/28 04:51:05;;;;;;;1.75;1.42;;;;;;;;;;5057270;28;20674;-59
2023/06/28 04:53:32;;;;;;;1.77;1.60;;;;;;;;;;5057518;28;20306;-59
2023/06/28 04:56:00;;;;;;;1.95;1.85;;;;;;;;;;5056595;28;20197;-59
2023/06/28 04:58:28;;;;;;;2.08;1.88;;;;;;;;;;5056509;28;20472;-59
2023/06/28 05:00:57;;;;;;;1.58;1.48;;;;;;;;;;5056184;28;20600;-59
2023/06/28 05:03:27;;;;;;;2.00;1.50;;;;;;;;;;5055617;28;20213;-59
2023/06/28 05:05:55;;;;;;;2.33;1.90;;;;;;;;;;5055294;28;20322;-59
2023/06/28 05:08:27;;;;;;;2.80;1.80;;;;;;;;;;5055285;28;20296;-59
2023/06/28 05:10:55;;;;;;;2.10;2.00;;;;;;;;;;5054295;28;20604;-59
2023/06/28 05:13:23;;;;;;;3.75;1.98;;;;;;;;;;5047807;28;20203;-59
2023/06/28 05:15:50;;;;;;;2.50;1.92;;;;;;;;;;5055611;28;20219;-60
2023/06/28 05:18:18;;;;;;;2.30;2.10;;;;;;;;;;5054271;28;20236;-60
2023/06/28 05:20:46;;;;;;;2.15;1.98;;;;;;;;;;5054822;28;20205;-59
2023/06/28 05:23:14;;;;;;;2.42;2.15;;;;;;;;;;5055450;28;20273;-59
2023/06/28 05:25:43;;;;;;;2.20;2.00;;;;;;;;;;5054325;28;20208;-59
2023/06/28 05:28:12;;;;;;;2.50;1.98;;;;;;;;;;5055119;28;20196;-59
2023/06/28 05:30:39;;;;;;;3.50;2.00;;;;;;;;;;5054726;28;20211;-59
2023/06/28 05:33:07;;;;;;;2.35;2.17;;;;;;;;;;5054722;28;20205;-59
2023/06/28 05:35:35;;;;;;;3.25;2.10;;;;;;;;;;5054615;28;20211;-60
2023/06/28 05:38:02;;;;;;;2.90;2.10;;;;;;;;;;5062240;28;20240;-60
2023/06/28 05:40:30;;;;;;;2.80;1.80;;;;;;;;;;5073761;28;20204;-60
2023/06/28 05:42:59;;;;;;;3.15;1.85;;;;;;;;;;5074030;28;20299;-60
2023/06/28 05:45:26;;;;;;;2.30;2.10;;;;;;;;;;5074728;28;20592;-60
2023/06/28 05:47:54;;;;;;;2.58;1.90;;;;;;;;;;5074547;28;20290;-60
2023/06/28 05:50:21;;;;;;;3.08;2.03;;;;;;;;;;5074674;28;20291;-60
2023/06/28 05:52:49;;;;;;;2.28;2.08;;;;;;;;;;5075274;28;20250;-60
2023/06/28 05:55:16;;;;;;;2.10;2.00;;;;;;;;;;5074512;28;20228;-60
2023/06/28 05:57:44;;;;;;;2.20;2.00;;;;;;;;;;5073964;28;20323;-60
2023/06/28 06:00:14;;;;;;;2.40;1.90;;;;;;;;;;5074648;28;20592;-60
2023/06/28 06:02:41;;;;;;;2.03;1.90;;;;;;;;;;5074482;28;20255;-59
2023/06/28 06:05:13;;;;;;;2.10;1.90;;;;;;;;;;5074083;28;20204;-59
2023/06/28 06:07:40;;;;;;;3.45;2.13;;;;;;;;;;5075286;28;20591;-60
2023/06/28 06:10:09;;;;;;;1.85;1.73;;;;;;;;;;5075329;28;20298;-60
2023/06/28 06:12:37;;;;;;;2.42;2.22;;;;;;;;;;5074394;28;20273;-60
2023/06/28 06:15:04;;;;;;;3.38;2.30;;;;;;;;;;5075667;28;20242;-60
2023/06/28 06:17:34;;;;;;;2.20;2.00;;;;;;;;;;5074638;28;20259;-60
2023/06/28 06:20:02;;;;;;;2.13;1.90;;;;;;;;;;5074189;28;20270;-60
2023/06/28 06:22:29;;;;;;;6.13;2.80;;;;;;;;;;5074605;28;20202;-60
2023/06/28 06:24:57;;;;;;;2.10;2.00;;;;;;;;;;5073462;28;20200;-60
2023/06/28 06:27:24;;;;;;;2.72;2.20;;;;;;;;;;5073823;28;20239;-60
2023/06/28 06:29:52;;;;;;;2.92;2.00;;;;;;;;;;5075138;28;20214;-59
2023/06/28 06:32:19;;;;;;;2.55;2.20;;;;;;;;;;5073655;28;20219;-59
2023/06/28 06:34:48;;;;;;;2.65;2.40;;;;;;;;;;5074308;28;20551;-59
2023/06/28 06:37:15;;;;;;;3.00;2.05;;;;;;;;;;5073683;28;20322;-59
2023/06/28 06:39:43;;;;;;;2.92;2.30;;;;;;;;;;5073204;28;20253;-59
2023/06/28 06:42:11;;;;;;;2.20;2.00;;;;;;;;;;5073973;28;20601;-59
2023/06/28 06:44:38;;;;;;;2.15;1.95;;;;;;;;;;5073520;28;20299;-60
2023/06/28 06:47:06;;;;;;;2.38;1.90;;;;;;;;;;5074017;28;20548;-60
2023/06/28 06:49:33;;;;;;;1.83;1.73;;;;;;;;;;5077870;28;20204;-60
2023/06/28 06:52:02;;;;;;;2.22;1.58;;;;;;;;;;5077833;28;20205;-60
2023/06/28 06:54:30;;;;;;;2.33;1.70;;;;;;;;;;5078005;28;20204;-60
2023/06/28 06:56:58;;;;;;;2.22;1.60;;;;;;;;;;5077665;28;20224;-60
2023/06/28 06:59:26;;;;;;;2.17;1.75;;;;;;;;;;5078460;28;20269;-60
2023/06/28 07:01:53;;;;;;;3.45;1.75;;;;;;;;;;5076964;28;20288;-60
2023/06/28 07:04:22;;;;;;;2.13;1.60;;;;;;;;;;5076551;28;20291;-60
2023/06/28 07:06:49;;;;;;;2.58;1.58;;;;;;;;;;5076000;28;20208;-60
2023/06/28 07:09:19;;;;;;;2.22;1.40;;;;;;;;;;5077671;28;20211;-60
2023/06/28 07:11:47;;;;;;;2.17;1.55;;;;;;;;;;5077999;28;20251;-60
2023/06/28 07:14:14;;;;;;;3.55;1.73;;;;;;;;;;5077649;28;20204;-60
2023/06/28 07:16:44;;;;;;;3.50;1.60;;;;;;;;;;5077256;28;20214;-60
2023/06/28 07:19:12;;;;;;;4.30;2.30;;;;;;;;;;5077909;28;20244;-60
2023/06/28 07:21:39;;;;;;;3.65;2.00;;;;;;;;;;5077630;28;20211;-60
2023/06/28 07:24:08;;;;;;;3.65;1.90;;;;;;;;;;5077433;28;20204;-60
2023/06/28 07:26:37;;;;;;;3.00;2.10;;;;;;;;;;5077753;28;20243;-60
2023/06/28 07:29:04;;;;;;;3.60;2.20;;;;;;;;;;5077266;28;20287;-60
2023/06/28 07:31:32;;;;;;;3.15;2.00;;;;;;;;;;5077658;28;20291;-60
2023/06/28 07:34:04;;;;;;;2.47;2.05;;;;;;;;;;5077914;28;20204;-60
2023/06/28 07:36:32;;;;;;;2.75;2.30;;;;;;;;;;5077976;28;20204;-60
2023/06/28 07:38:59;;;;;;;3.53;2.10;;;;;;;;;;5076603;28;20286;-60
2023/06/28 07:41:27;;;;;;;3.53;2.30;;;;;;;;;;5077672;28;20277;-60
2023/06/28 07:43:56;;;;;;;3.08;2.13;;;;;;;;;;5077550;28;20258;-60
2023/06/28 07:46:24;;;;;;;3.55;2.13;;;;;;;;;;5078022;28;20247;-60
2023/06/28 07:48:51;;;;;;;2.45;1.98;;;;;;;;;;5076665;28;20300;-60
2023/06/28 07:51:19;;;;;;;3.42;2.10;;;;;;;;;;5076650;28;20239;-60
2023/06/28 07:53:47;;;;;;;2.78;2.10;;;;;;;;;;5076303;28;20295;-60
2023/06/28 07:56:14;;;;;;;2.78;2.05;;;;;;;;;;5077121;28;20217;-60
2023/06/28 07:58:41;;;;;;;2.28;2.08;;;;;;;;;;5076498;28;21273;-59
2023/06/28 08:01:10;;;;;;;2.83;1.75;;;;;;;;;;5077172;28;20205;-60
2023/06/28 08:03:38;;;;;;;2.50;1.92;;;;;;;;;;5077050;28;20196;-60
2023/06/28 08:06:05;;;;;;;2.30;2.10;;;;;;;;;;5077459;28;20251;-60
2023/06/28 08:08:33;;;;;;;2.72;2.00;;;;;;;;;;5075970;28;20307;-60
2023/06/28 08:11:00;;;;;;;2.33;1.98;;;;;;;;;;5076511;28;20287;-60
2023/06/28 08:13:28;;;;;;;2.75;1.60;;;;;;;;;;5075856;28;20204;-59
2023/06/28 08:15:55;;;;;;;1.92;1.75;;;;;;;;;;5076645;28;20214;-61
2023/06/28 08:18:24;;;;;;;2.53;1.60;;;;;;;;;;5075856;28;20236;-60
2023/06/28 08:20:53;;;;;;;2.10;1.48;;;;;;;;;;5076063;28;20266;-60
2023/06/28 08:23:21;;;;;;;3.00;1.80;;;;;;;;;;5077097;28;20204;-60
2023/06/28 08:25:48;;;;;;;1.83;1.50;;;;;;;;;;5076283;28;20240;-60
2023/06/28 08:28:16;;;;;;;1.70;1.50;;;;;;;;;;5076201;28;20192;-60
2023/06/28 08:30:43;;;;;;;2.20;1.58;;;;;;;;;;5076554;28;20643;-60
2023/06/28 08:33:11;;;;;;;2.80;1.63;;;;;;;;;;5076023;28;20295;-60
2023/06/28 08:35:40;;;;;;;1.73;1.60;;;;;;;;;;5076338;28;20201;-60
2023/06/28 08:38:07;;;;;;;1.88;1.70;;;;;;;;;;5076143;28;20234;-60
2023/06/28 08:40:34;;;;;;;2.10;1.90;;;;;;;;;;5076171;28;20204;-60
2023/06/28 08:43:02;;;;;;;1.45;1.30;;;;;;;;;;5074980;28;20216;-60
2023/06/28 08:45:32;;;;;;;2.03;1.67;;;;;;;;;;5075217;28;20212;-60
2023/06/28 08:48:00;;;;;;;3.00;1.70;;;;;;;;;;5075296;28;20326;-60
2023/06/28 08:50:27;;;;;;;2.03;1.50;;;;;;;;;;5075232;28;20210;-60
2023/06/28 08:52:58;;;;;;;2.90;1.60;;;;;;;;;;5076353;28;20824;-59
2023/06/28 08:55:25;;;;;;;2.13;1.65;;;;;;;;;;5075760;28;20211;-59
2023/06/28 08:57:54;;;;;;;1.60;1.38;;;;;;;;;;5076141;28;20220;-59
2023/06/28 09:00:21;;;;;;;1.55;1.45;;;;;;;;;;5075349;28;20269;-60
2023/06/28 09:02:49;;;;;;;1.55;1.42;;;;;;;;;;5074716;28;20861;-60
2023/06/28 09:05:18;;;;;;;2.22;1.60;;;;;;;;;;5075248;28;20205;-60
2023/06/28 09:07:48;;;;;;;1.95;1.42;;;;;;;;;;5074998;28;20200;-60
2023/06/28 09:10:17;;;;;;;1.42;1.33;;;;;;;;;;5074536;28;20196;-60
2023/06/28 09:12:45;;;;;;;1.75;1.25;;;;;;;;;;5074154;28;20232;-60
2023/06/28 09:15:13;;;;;;;2.20;1.52;;;;;;;;;;5074579;28;20206;-60
2023/06/28 09:17:40;;;;;;;4.80;1.58;;;;;;;;;;5074809;28;20231;-60
2023/06/28 09:20:17;;;;;;;1.70;1.40;;;;;;;;;;5075846;28;20299;-60
2023/06/28 09:22:45;;;;;;;1.67;1.40;;;;;;;;;;5075556;28;20200;-60
2023/06/28 09:25:12;;;;;;;1.58;1.30;;;;;;;;;;5074707;28;20697;-60
2023/06/28 09:27:43;;;;;;;1.95;1.30;;;;;;;;;;5074884;28;20294;-60
2023/06/28 09:30:17;;;;;;;1.67;1.50;;;;;;;;;;5074606;28;20629;-60
2023/06/28 09:32:50;;;;;;;1.50;1.30;;;;;;;;;;5074639;28;20512;-60
2023/06/28 09:35:17;;;;;;;2.15;1.70;;;;;;;;;;5074125;28;20269;-60
2023/06/28 09:37:48;;;;;;;1.63;1.30;;;;;;;;;;5073728;28;20232;-60
2023/06/28 09:40:17;;;;;;;1.40;1.30;;;;;;;;;;5074878;28;20200;-60
2023/06/28 09:42:46;;;;;;;1.85;1.33;;;;;;;;;;5075793;28;20214;-60
2023/06/28 09:45:26;;;;;;;1.92;1.38;;;;;;;;;;5074855;28;20592;-60
2023/06/28 09:47:58;;;;;;;2.17;1.30;;;;;;;;;;5074510;28;20211;-60
2023/06/28 09:50:38;;;;;;;1.48;1.23;;;;;;;;;;5074893;28;20204;-60
2023/06/28 09:53:09;;;;;;;1.67;1.23;;;;;;;;;;5074249;28;20204;-60
2023/06/28 09:55:39;;;;;;;2.03;1.40;;;;;;;;;;5073684;28;20770;-60
2023/06/28 09:58:08;;;;;;;2.38;1.42;;;;;;;;;;5073189;28;20270;-60
2023/06/28 10:00:37;;;;;;;2.15;1.23;;;;;;;;;;5072908;28;20239;-60
2023/06/28 10:03:06;;;;;;;1.85;1.35;;;;;;;;;;5073389;28;20196;-60
2023/06/28 10:05:34;;;;;;;1.38;1.27;;;;;;;;;;5072966;28;20204;-60
2023/06/28 10:08:01;;;;;;;1.92;1.27;;;;;;;;;;5072919;28;20283;-60
2023/06/28 10:10:29;;;;;;;1.80;1.30;;;;;;;;;;5072471;28;20239;-60
2023/06/28 10:12:58;;;;;;;1.77;1.38;;;;;;;;;;5072732;28;20587;-60
2023/06/28 10:15:27;;;;;;;1.35;1.20;;;;;;;;;;5073126;28;20340;-60
2023/06/28 10:17:55;;;;;;;1.80;1.30;;;;;;;;;;5072909;28;20603;-60
2023/06/28 10:20:22;;;;;;;1.90;1.10;;;;;;;;;;5073252;28;20227;-60
2023/06/28 10:22:50;;;;;;;2.00;1.23;;;;;;;;;;5072516;28;20300;-60
2023/06/28 10:25:18;;;;;;;1.25;1.10;;;;;;;;;;5073664;28;20204;-60
2023/06/28 10:27:46;;;;;;;1.35;1.15;;;;;;;;;;5073395;28;20212;-60
2023/06/28 10:30:13;;;;;;;1.48;1.20;;;;;;;;;;5073117;28;20227;-60
2023/06/28 10:32:45;;;;;;;1.33;1.20;;;;;;;;;;5073299;28;20295;-60
2023/06/28 10:35:12;;;;;;;1.48;1.00;;;;;;;;;;5072429;28;20214;-60
2023/06/28 10:37:40;;;;;;;1.58;1.25;;;;;;;;;;5072724;28;20276;-60
2023/06/28 10:40:10;;;;;;;1.42;1.10;;;;;;;;;;5073058;28;20224;-60
2023/06/28 10:42:41;;;;;;;1.58;1.00;;;;;;;;;;5073608;28;20204;-60
2023/06/28 10:45:09;;;;;;;1.27;1.00;;;;;;;;;;5072219;28;20204;-60
2023/06/28 10:47:37;;;;;;;1.30;1.10;;;;;;;;;;5073055;28;20212;-60
2023/06/28 10:50:10;;;;;;;1.50;1.25;;;;;;;;;;5072330;28;20283;-60
2023/06/28 10:52:44;;;;;;;1.55;1.17;;;;;;;;;;5073039;28;20303;-60
2023/06/28 10:55:14;;;;;;;1.52;1.13;;;;;;;;;;5072689;28;20248;-60
2023/06/28 10:57:42;;;;;;;1.40;1.30;;;;;;;;;;5073890;28;20234;-60
2023/06/28 11:00:12;;;;;;;1.55;1.10;;;;;;;;;;5071626;28;20238;-60
2023/06/28 11:02:56;;;;;;;1.30;1.17;;;;;;;;;;5072731;28;20410;-60
2023/06/28 11:05:41;;;;;;;2.28;1.00;;;;;;;;;;5072526;28;20196;-60
2023/06/28 11:08:13;;;;;;;1.77;1.00;;;;;;;;;;5071872;28;20294;-60
2023/06/28 11:10:41;;;;;;;1.88;1.15;;;;;;;;;;5073304;28;20196;-60
2023/06/28 11:13:11;;;;;;;1.30;1.00;;;;;;;;;;5072418;28;20200;-60
2023/06/28 11:15:43;;;;;;;1.50;1.27;;;;;;;;;;5072941;28;20204;-61
2023/06/28 11:18:12;;;;;;;1.25;1.15;;;;;;;;;;5072227;28;20211;-60
2023/06/28 11:20:51;;;;;;;2.28;1.13;;;;;;;;;;5073032;28;20266;-60
2023/06/28 11:23:39;;;;;;;1.23;1.13;;;;;;;;;;5073101;28;20214;-60
2023/06/28 11:26:07;;;;;;;1.92;1.40;;;;;;;;;;5067296;28;20291;-60
2023/06/28 11:28:35;;;;;;;2.50;1.10;;;;;;;;;;5072973;28;20205;-60
2023/06/28 11:31:15;;;;;;;1.27;1.17;;;;;;;;;;5072365;28;20812;-60
2023/06/28 11:33:44;;;;;;;1.20;1.05;;;;;;;;;;5073479;28;20199;-60
2023/06/28 11:36:13;;;;;;;1.63;1.00;;;;;;;;;;5076125;28;20295;-60
2023/06/28 11:38:44;;;;;;;1.45;1.23;;;;;;;;;;5063091;28;20237;-60
2023/06/28 11:41:11;;;;;;;1.35;0.80;;;;;;;;;;5056280;28;20212;-60
2023/06/28 11:43:39;;;;;;;1.10;1.00;;;;;;;;;;5056457;28;20197;-60
2023/06/28 11:46:06;;;;;;;1.33;1.00;;;;;;;;;;5056061;28;20295;-60
2023/06/28 11:48:34;;;;;;;2.22;1.10;;;;;;;;;;5055399;28;20194;-60
2023/06/28 11:51:02;;;;;;;1.27;1.08;;;;;;;;;;5055417;28;20592;-60
2023/06/28 11:53:31;;;;;;;1.33;1.00;;;;;;;;;;5055728;28;20204;-60
2023/06/28 11:55:59;;;;;;;1.20;0.90;;;;;;;;;;5057245;28;20295;-60
2023/06/28 11:58:27;;;;;;;1.20;1.10;;;;;;;;;;5056440;28;20212;-60
2023/06/28 12:00:54;;;;;;;1.33;1.23;;;;;;;;;;5055576;28;20304;-60
2023/06/28 12:03:30;;;;;;;1.48;1.00;;;;;;;;;;5056646;28;20240;-60
2023/06/28 12:05:57;;;;;;;1.98;1.20;;;;;;;;;;5056062;28;20712;-60
2023/06/28 12:08:25;;;;;;;1.67;1.00;;;;;;;;;;5056795;28;20493;-60
2023/06/28 12:10:55;;;;;;;1.80;1.00;;;;;;;;;;5056427;28;20462;-60
2023/06/28 12:13:22;;;;;;;1.10;1.00;;;;;;;;;;5056044;28;20212;-60
2023/06/28 12:15:52;;;;;;;1.10;1.00;;;;;;;;;;5056227;28;20197;-60
2023/06/28 12:18:19;;;;;;;1.75;1.20;;;;;;;;;;5055478;28;20299;-60
2023/06/28 12:20:47;;;;;;;1.35;1.10;;;;;;;;;;5055714;28;20205;-60
2023/06/28 12:23:14;;;;;;;1.10;1.00;;;;;;;;;;5056071;28;20545;-60
2023/06/28 12:25:42;;;;;;;1.55;1.20;;;;;;;;;;5056042;28;20211;-60
2023/06/28 12:28:14;;;;;;;1.02;1.00;;;;;;;;;;5054705;28;20604;-60
2023/06/28 12:30:42;;;;;;;1.30;1.15;;;;;;;;;;5055208;28;20204;-60
2023/06/28 12:33:10;;;;;;;1.40;1.10;;;;;;;;;;5056193;28;20254;-60
2023/06/28 12:35:38;;;;;;;1.40;1.20;;;;;;;;;;5055793;28;20201;-60
2023/06/28 12:38:05;;;;;;;1.67;1.20;;;;;;;;;;5055352;28;20264;-60
2023/06/28 12:40:33;;;;;;;1.38;1.10;;;;;;;;;;5054978;28;20319;-60
2023/06/28 12:43:17;;;;;;;1.10;1.00;;;;;;;;;;5055163;28;20201;-60
2023/06/28 12:45:46;;;;;;;2.63;0.95;;;;;;;;;;5054971;28;20204;-60
2023/06/28 12:48:16;;;;;;;1.02;1.00;;;;;;;;;;5055208;28;20212;-60
2023/06/28 12:50:43;;;;;;;2.45;1.20;;;;;;;;;;5055277;28;20201;-60
2023/06/28 12:53:11;;;;;;;1.27;1.17;;;;;;;;;;5054517;28;20629;-60
2023/06/28 12:55:39;;;;;;;1.23;1.13;;;;;;;;;;5054354;28;20205;-60
2023/06/28 12:58:07;;;;;;;1.50;1.17;;;;;;;;;;5053482;28;20212;-60
2023/06/28 13:00:36;;;;;;;1.05;0.90;;;;;;;;;;5054838;28;20228;-60
2023/06/28 13:03:03;;;;;;;1.35;1.10;;;;;;;;;;5055060;28;20227;-60
2023/06/28 13:05:31;;;;;;;0.93;0.93;;;;;;;;;;5054754;28;20604;-60
2023/06/28 13:07:58;;;;;;;1.65;1.05;;;;;;;;;;5054514;28;20209;-60
2023/06/28 13:10:26;;;;;;;1.20;1.02;;;;;;;;;;5054432;28;20208;-60
2023/06/28 13:12:53;;;;;;;1.27;1.15;;;;;;;;;;5054856;28;20236;-60
2023/06/28 13:15:21;;;;;;;1.60;1.20;;;;;;;;;;5054858;28;20228;-60
2023/06/28 13:17:50;;;;;;;1.83;1.27;;;;;;;;;;5054694;28;20526;-60
2023/06/28 13:20:17;;;;;;;1.10;1.00;;;;;;;;;;5054426;28;20328;-60
2023/06/28 13:22:45;;;;;;;1.15;1.05;;;;;;;;;;5053747;28;20201;-60
2023/06/28 13:25:13;;;;;;;1.95;1.40;;;;;;;;;;5054047;28;20197;-60
2023/06/28 13:27:40;;;;;;;1.30;1.15;;;;;;;;;;5053886;28;20211;-60
2023/06/28 13:30:08;;;;;;;1.23;1.00;;;;;;;;;;5054870;28;20193;-60
2023/06/28 13:32:36;;;;;;;1.60;1.00;;;;;;;;;;5053545;28;20279;-60
2023/06/28 13:35:06;;;;;;;1.40;1.10;;;;;;;;;;5054226;28;20277;-60
2023/06/28 13:37:33;;;;;;;1.20;1.10;;;;;;;;;;5054212;28;20298;-60
2023/06/28 13:40:02;;;;;;;2.00;1.23;;;;;;;;;;5054429;28;20225;-60
2023/06/28 13:42:29;;;;;;;1.45;1.30;;;;;;;;;;5053695;28;20488;-60
2023/06/28 13:44:57;;;;;;;1.73;1.10;;;;;;;;;;5053944;28;20232;-60
2023/06/28 13:47:24;;;;;;;2.33;1.27;;;;;;;;;;5053270;28;20272;-60
2023/06/28 13:49:51;;;;;;;1.33;1.20;;;;;;;;;;5053630;28;20287;-60
2023/06/28 13:52:20;;;;;;;1.70;1.00;;;;;;;;;;5053408;28;20196;-60
2023/06/28 13:54:48;;;;;;;0.90;0.90;;;;;;;;;;5052866;28;20201;-60
2023/06/28 13:57:15;;;;;;;1.73;1.05;;;;;;;;;;5050928;28;20312;-60
2023/06/28 13:59:43;;;;;;;1.45;1.13;;;;;;;;;;5053833;28;20532;-60
2023/06/28 14:02:12;;;;;;;1.13;1.02;;;;;;;;;;5054436;28;20308;-60
2023/06/28 14:04:39;;;;;;;1.25;1.10;;;;;;;;;;5053579;28;20263;-60
2023/06/28 14:07:07;;;;;;;1.45;1.10;;;;;;;;;;5053967;28;20205;-60
2023/06/28 14:09:36;;;;;;;1.00;0.90;;;;;;;;;;5052267;28;20211;-60
2023/06/28 14:12:03;;;;;;;1.40;1.20;;;;;;;;;;5052482;28;20692;-60
2023/06/28 14:14:31;;;;;;;1.73;1.20;;;;;;;;;;5054179;28;20266;-60
2023/06/28 14:16:59;;;;;;;1.33;1.20;;;;;;;;;;5053275;28;20205;-60
2023/06/28 14:19:26;;;;;;;2.50;1.30;;;;;;;;;;5052941;28;20224;-60
2023/06/28 14:21:54;;;;;;;1.20;1.08;;;;;;;;;;5053493;28;20204;-60
2023/06/28 14:24:21;;;;;;;2.15;1.20;;;;;;;;;;5053795;28;20211;-60
2023/06/28 14:26:52;;;;;;;1.17;1.08;;;;;;;;;;5054211;28;20211;-60
2023/06/28 14:29:20;;;;;;;1.20;1.10;;;;;;;;;;5053194;28;20231;-60
2023/06/28 14:31:47;;;;;;;1.38;1.20;;;;;;;;;;5053603;28;20676;-60
2023/06/28 14:34:15;;;;;;;1.15;1.05;;;;;;;;;;5053821;28;20495;-60
2023/06/28 14:36:42;;;;;;;1.25;1.10;;;;;;;;;;5052981;28;20237;-60
2023/06/28 14:39:09;;;;;;;1.20;1.10;;;;;;;;;;5071071;28;20315;-60
2023/06/28 14:41:37;;;;;;;1.55;1.10;;;;;;;;;;5072805;28;20304;-60
2023/06/28 14:44:06;;;;;;;1.20;1.10;;;;;;;;;;5071883;28;20200;-60
2023/06/28 14:46:33;;;;;;;1.23;1.02;;;;;;;;;;5073241;28;20204;-60
2023/06/28 14:49:01;;;;;;;1.38;1.20;;;;;;;;;;5072949;28;20274;-60
2023/06/28 14:51:28;;;;;;;1.50;1.30;;;;;;;;;;5072963;28;20287;-60